createdAt,value
2023-02-28T00:00:50.497Z,1028.74
2023-02-28T00:02:09.728Z,1028.73
2023-02-28T00:02:51.427Z,1028.81
2023-02-28T00:03:51.248Z,1028.75
2023-02-28T00:04:51.561Z,1028.74
2023-02-28T00:05:50.499Z,1028.76
2023-02-28T00:06:50.505Z,1028.73
2023-02-28T00:07:51.421Z,1028.74
2023-02-28T00:08:51.199Z,1028.71
2023-02-28T00:09:50.981Z,1028.76
2023-02-28T00:10:51.271Z,1028.75
2023-02-28T00:12:09.601Z,1028.73
2023-02-28T00:12:51.356Z,1028.76
2023-02-28T00:13:51.111Z,1028.74
2023-02-28T00:14:50.901Z,1028.74
2023-02-28T00:15:51.179Z,1028.75
2023-02-28T00:16:50.208Z,1028.74
2023-02-28T00:17:50.504Z,1028.70
2023-02-28T00:18:51.074Z,1028.71
2023-02-28T00:19:51.298Z,1028.67
2023-02-28T00:20:49.726Z,1028.71
2023-02-28T00:22:09.473Z,1028.69
2023-02-28T00:22:50.527Z,1028.72
2023-02-28T00:23:50.986Z,1028.70
2023-02-28T00:24:51.286Z,1028.73
2023-02-28T00:25:51.064Z,1028.75
2023-02-28T00:26:50.861Z,1028.71
2023-02-28T00:27:50.364Z,1028.72
2023-02-28T00:28:50.025Z,1028.73
2023-02-28T00:29:50.026Z,1028.72
2023-02-28T00:30:51.026Z,1028.75
2023-02-28T00:32:09.380Z,1028.79
2023-02-28T00:32:50.209Z,1028.79
2023-02-28T00:33:50.993Z,1028.75
2023-02-28T00:34:50.771Z,1028.76
2023-02-28T00:35:49.791Z,1028.79
2023-02-28T00:36:50.885Z,1028.76
2023-02-28T00:37:51.155Z,1028.74
2023-02-28T00:38:50.959Z,1028.78
2023-02-28T00:39:50.728Z,1028.78
2023-02-28T00:40:51.032Z,1028.78
2023-02-28T00:42:09.376Z,1028.82
2023-02-28T00:42:51.082Z,1028.81
2023-02-28T00:43:50.877Z,1028.77
2023-02-28T00:44:50.661Z,1028.78
2023-02-28T00:45:50.947Z,1028.81
2023-02-28T00:46:50.710Z,1028.82
2023-02-28T00:47:50.018Z,1028.85
2023-02-28T00:48:50.776Z,1028.86
2023-02-28T00:49:50.541Z,1028.83
2023-02-28T00:50:50.908Z,1028.90
2023-02-28T00:52:09.214Z,1028.84
2023-02-28T00:52:50.902Z,1028.90
2023-02-28T00:53:50.016Z,1028.89
2023-02-28T00:54:50.982Z,1028.87
2023-02-28T00:55:50.773Z,1028.83
2023-02-28T00:56:49.770Z,1028.86
2023-02-28T00:57:50.823Z,1028.90
2023-02-28T00:58:50.643Z,1028.90
2023-02-28T00:59:50.026Z,1028.92
2023-02-28T01:00:50.696Z,1028.95
2023-02-28T01:02:09.024Z,1028.92
2023-02-28T01:02:50.724Z,1028.92
2023-02-28T01:03:50.532Z,1028.97
2023-02-28T01:04:50.863Z,1028.97
2023-02-28T01:05:50.025Z,1028.94
2023-02-28T01:06:49.146Z,1028.96
2023-02-28T01:07:50.751Z,1028.98
2023-02-28T01:08:50.530Z,1028.98
2023-02-28T01:09:50.047Z,1028.97
2023-02-28T01:10:50.608Z,1028.96
2023-02-28T01:12:09.431Z,1028.98
2023-02-28T01:12:50.620Z,1029.04
2023-02-28T01:13:50.416Z,1029.01
2023-02-28T01:14:50.740Z,1028.99
2023-02-28T01:15:50.551Z,1028.96
2023-02-28T01:16:50.300Z,1028.99
2023-02-28T01:17:49.525Z,1028.96
2023-02-28T01:18:49.649Z,1028.98
2023-02-28T01:19:50.677Z,1029.00
2023-02-28T01:20:50.450Z,1029.00
2023-02-28T01:22:09.291Z,1028.97
2023-02-28T01:22:49.529Z,1028.96
2023-02-28T01:23:50.330Z,1028.98
2023-02-28T01:24:50.610Z,1029.01
2023-02-28T01:25:50.396Z,1028.99
2023-02-28T01:26:50.660Z,1028.99
2023-02-28T01:27:50.464Z,1028.97
2023-02-28T01:28:49.539Z,1029.01
2023-02-28T01:29:50.498Z,1028.96
2023-02-28T01:30:50.389Z,1028.99
2023-02-28T01:32:09.169Z,1029.02
2023-02-28T01:32:50.341Z,1028.97
2023-02-28T01:33:49.554Z,1028.96
2023-02-28T01:34:49.530Z,1028.96
2023-02-28T01:35:50.243Z,1028.99
2023-02-28T01:36:50.499Z,1028.97
2023-02-28T01:37:50.289Z,1028.99
2023-02-28T01:38:50.641Z,1028.95
2023-02-28T01:39:49.529Z,1029.02
2023-02-28T01:40:50.215Z,1029.01
2023-02-28T01:42:09.018Z,1029.00
2023-02-28T01:42:50.228Z,1029.01
2023-02-28T01:43:50.517Z,1029.05
2023-02-28T01:44:50.306Z,1028.96
2023-02-28T01:45:49.565Z,1029.00
2023-02-28T01:46:49.885Z,1028.89
2023-02-28T01:47:49.397Z,1028.88
2023-02-28T01:48:50.476Z,1028.96
2023-02-28T01:49:50.236Z,1028.89
2023-02-28T01:50:50.028Z,1028.89
2023-02-28T01:52:08.845Z,1028.86
2023-02-28T01:52:50.066Z,1028.87
2023-02-28T01:53:50.386Z,1028.89
2023-02-28T01:54:50.214Z,1028.90
2023-02-28T01:55:49.978Z,1028.88
2023-02-28T01:56:50.278Z,1028.88
2023-02-28T01:57:50.055Z,1028.85
2023-02-28T01:58:50.347Z,1028.78
2023-02-28T01:59:49.367Z,1028.80
2023-02-28T02:00:49.933Z,1028.77
2023-02-28T02:02:08.762Z,1028.77
2023-02-28T02:02:49.071Z,1028.75
2023-02-28T02:03:49.535Z,1028.72
2023-02-28T02:04:50.018Z,1028.74
2023-02-28T02:05:50.305Z,1028.71
2023-02-28T02:06:50.089Z,1028.76
2023-02-28T02:07:49.372Z,1028.70
2023-02-28T02:08:49.037Z,1028.74
2023-02-28T02:09:49.049Z,1028.70
2023-02-28T02:10:50.321Z,1028.68
2023-02-28T02:12:08.576Z,1028.76
2023-02-28T02:12:49.048Z,1028.67
2023-02-28T02:13:50.073Z,1028.70
2023-02-28T02:14:49.854Z,1028.67
2023-02-28T02:15:49.078Z,1028.73
2023-02-28T02:16:49.930Z,1028.66
2023-02-28T02:17:49.707Z,1028.69
2023-02-28T02:18:50.042Z,1028.67
2023-02-28T02:19:49.779Z,1028.64
2023-02-28T02:20:50.087Z,1028.65
2023-02-28T02:22:08.398Z,1028.61
2023-02-28T02:22:50.119Z,1028.60
2023-02-28T02:23:49.901Z,1028.63
2023-02-28T02:24:48.923Z,1028.62
2023-02-28T02:25:50.010Z,1028.64
2023-02-28T02:26:49.797Z,1028.61
2023-02-28T02:27:49.049Z,1028.57
2023-02-28T02:28:49.874Z,1028.64
2023-02-28T02:29:49.633Z,1028.60
2023-02-28T02:30:49.938Z,1028.62
2023-02-28T02:32:08.308Z,1028.58
2023-02-28T02:32:49.967Z,1028.60
2023-02-28T02:33:49.041Z,1028.59
2023-02-28T02:34:49.547Z,1028.57
2023-02-28T02:35:49.857Z,1028.53
2023-02-28T02:36:49.599Z,1028.57
2023-02-28T02:37:49.885Z,1028.54
2023-02-28T02:38:48.887Z,1028.48
2023-02-28T02:39:49.066Z,1028.49
2023-02-28T02:40:49.741Z,1028.54
2023-02-28T02:42:08.396Z,1028.46
2023-02-28T02:42:49.803Z,1028.47
2023-02-28T02:43:49.547Z,1028.44
2023-02-28T02:44:49.062Z,1028.44
2023-02-28T02:45:48.857Z,1028.42
2023-02-28T02:46:49.484Z,1028.47
2023-02-28T02:47:49.719Z,1028.42
2023-02-28T02:48:49.513Z,1028.47
2023-02-28T02:49:49.822Z,1028.52
2023-02-28T02:50:49.083Z,1028.48
2023-02-28T02:52:07.969Z,1028.50
2023-02-28T02:52:49.662Z,1028.54
2023-02-28T02:53:48.691Z,1028.47
2023-02-28T02:54:49.708Z,1028.53
2023-02-28T02:55:49.495Z,1028.58
2023-02-28T02:56:48.586Z,1028.61
2023-02-28T02:57:49.621Z,1028.57
2023-02-28T02:58:49.411Z,1028.54
2023-02-28T02:59:49.705Z,1028.61
2023-02-28T03:00:49.496Z,1028.60
2023-02-28T03:02:09.270Z,1028.64
2023-02-28T03:02:49.223Z,1028.65
2023-02-28T03:03:49.571Z,1028.63
2023-02-28T03:04:49.313Z,1028.69
2023-02-28T03:05:49.609Z,1028.68
2023-02-28T03:06:49.365Z,1028.68
2023-02-28T03:07:48.564Z,1028.68
2023-02-28T03:08:49.460Z,1028.70
2023-02-28T03:09:49.243Z,1028.65
2023-02-28T03:10:49.514Z,1028.68
2023-02-28T03:12:08.800Z,1028.70
2023-02-28T03:12:48.196Z,1028.70
2023-02-28T03:13:48.580Z,1028.75
2023-02-28T03:14:49.263Z,1028.69
2023-02-28T03:15:49.544Z,1028.70
2023-02-28T03:16:48.578Z,1028.68
2023-02-28T03:17:49.606Z,1028.62
2023-02-28T03:18:48.568Z,1028.67
2023-02-28T03:19:49.196Z,1028.63
2023-02-28T03:20:49.486Z,1028.63
2023-02-28T03:22:07.882Z,1028.64
2023-02-28T03:22:48.573Z,1028.62
2023-02-28T03:23:49.385Z,1028.62
2023-02-28T03:24:48.573Z,1028.68
2023-02-28T03:25:49.022Z,1028.62
2023-02-28T03:26:48.876Z,1028.66
2023-02-28T03:27:49.223Z,1028.63
2023-02-28T03:28:49.051Z,1028.65
2023-02-28T03:29:48.575Z,1028.64
2023-02-28T03:30:48.405Z,1028.62
2023-02-28T03:32:08.225Z,1028.65
2023-02-28T03:32:49.290Z,1028.65
2023-02-28T03:33:49.117Z,1028.67
2023-02-28T03:34:49.449Z,1028.68
2023-02-28T03:35:48.599Z,1028.73
2023-02-28T03:36:49.155Z,1028.69
2023-02-28T03:37:48.938Z,1028.67
2023-02-28T03:38:49.254Z,1028.66
2023-02-28T03:39:49.067Z,1028.63
2023-02-28T03:40:48.883Z,1028.65
2023-02-28T03:42:07.773Z,1028.66
2023-02-28T03:42:48.532Z,1028.71
2023-02-28T03:43:48.860Z,1028.68
2023-02-28T03:44:49.171Z,1028.66
2023-02-28T03:45:49.032Z,1028.64
2023-02-28T03:46:48.811Z,1028.62
2023-02-28T03:47:48.110Z,1028.64
2023-02-28T03:48:47.471Z,1028.66
2023-02-28T03:49:47.781Z,1028.70
2023-02-28T03:50:47.573Z,1028.63
2023-02-28T03:52:07.863Z,1028.67
2023-02-28T03:52:48.295Z,1028.64
2023-02-28T03:53:47.406Z,1028.63
2023-02-28T03:54:47.688Z,1028.63
2023-02-28T03:55:47.468Z,1028.67
2023-02-28T03:56:47.721Z,1028.63
2023-02-28T03:57:47.539Z,1028.60
2023-02-28T03:58:47.333Z,1028.58
2023-02-28T03:59:47.607Z,1028.60
2023-02-28T04:00:47.387Z,1028.55
2023-02-28T04:02:07.765Z,1028.57
2023-02-28T04:02:47.451Z,1028.60
2023-02-28T04:03:47.243Z,1028.64
2023-02-28T04:04:55.192Z,1028.59
2023-02-28T04:05:47.477Z,1028.63
2023-02-28T04:06:47.236Z,1028.64
2023-02-28T04:07:47.467Z,1028.63
2023-02-28T04:08:47.242Z,1028.62
2023-02-28T04:09:53.754Z,1028.63
2023-02-28T04:10:47.507Z,1028.61
2023-02-28T04:12:07.272Z,1028.68
2023-02-28T04:12:47.505Z,1028.68
2023-02-28T04:13:47.711Z,1028.67
2023-02-28T04:14:53.755Z,1028.68
2023-02-28T04:15:47.522Z,1028.74
2023-02-28T04:16:48.196Z,1028.69
2023-02-28T04:17:47.497Z,1028.74
2023-02-28T04:18:47.267Z,1028.72
2023-02-28T04:19:53.780Z,1028.71
2023-02-28T04:20:47.027Z,1028.64
2023-02-28T04:22:07.295Z,1028.73
2023-02-28T04:22:47.016Z,1028.68
2023-02-28T04:23:47.277Z,1028.68
2023-02-28T04:24:47.027Z,1028.68
2023-02-28T04:25:47.288Z,1028.64
2023-02-28T04:26:47.047Z,1028.61
2023-02-28T04:27:47.276Z,1028.63
2023-02-28T04:28:47.003Z,1028.55
2023-02-28T04:29:47.275Z,1028.57
2023-02-28T04:30:47.011Z,1028.59
2023-02-28T04:32:07.324Z,1028.64
2023-02-28T04:32:47.003Z,1028.61
2023-02-28T04:33:48.701Z,1028.64
2023-02-28T04:34:52.364Z,1028.69
2023-02-28T04:35:47.130Z,1028.69
2023-02-28T04:36:47.364Z,1028.73
2023-02-28T04:37:47.111Z,1028.72
2023-02-28T04:38:46.869Z,1028.76
2023-02-28T04:39:47.120Z,1028.78
2023-02-28T04:40:46.879Z,1028.75
2023-02-28T04:42:08.118Z,1028.77
2023-02-28T04:42:46.898Z,1028.75
2023-02-28T04:43:47.122Z,1028.75
2023-02-28T04:44:53.693Z,1028.77
2023-02-28T04:45:46.951Z,1028.80
2023-02-28T04:46:47.169Z,1028.73
2023-02-28T04:47:46.919Z,1028.75
2023-02-28T04:48:47.164Z,1028.69
2023-02-28T04:49:53.172Z,1028.76
2023-02-28T04:50:46.918Z,1028.73
2023-02-28T04:52:07.191Z,1028.72
2023-02-28T04:52:46.967Z,1028.72
2023-02-28T04:53:47.185Z,1028.73
2023-02-28T04:54:46.937Z,1028.79
2023-02-28T04:55:48.148Z,1028.72
2023-02-28T04:56:46.970Z,1028.68
2023-02-28T04:57:46.699Z,1028.71
2023-02-28T04:58:46.965Z,1028.71
2023-02-28T04:59:46.722Z,1028.73
2023-02-28T05:00:46.945Z,1028.75
2023-02-28T05:02:08.627Z,1028.79
2023-02-28T05:02:47.585Z,1028.77
2023-02-28T05:03:46.904Z,1028.77
2023-02-28T05:04:48.115Z,1028.78
2023-02-28T05:05:46.925Z,1028.79
2023-02-28T05:06:46.665Z,1028.79
2023-02-28T05:07:46.930Z,1028.82
2023-02-28T05:08:46.656Z,1028.81
2023-02-28T05:09:46.930Z,1028.77
2023-02-28T05:10:48.121Z,1028.82
2023-02-28T05:12:06.958Z,1028.77
2023-02-28T05:12:46.697Z,1028.73
2023-02-28T05:13:46.947Z,1028.75
2023-02-28T05:14:53.000Z,1028.84
2023-02-28T05:15:46.753Z,1028.74
2023-02-28T05:16:46.975Z,1028.78
2023-02-28T05:17:46.707Z,1028.76
2023-02-28T05:18:47.019Z,1028.76
2023-02-28T05:19:48.156Z,1028.78
2023-02-28T05:20:47.939Z,1028.78
2023-02-28T05:22:07.466Z,1028.80
2023-02-28T05:22:46.502Z,1028.81
2023-02-28T05:23:48.205Z,1028.82
2023-02-28T05:24:47.141Z,1028.87
2023-02-28T05:25:46.790Z,1028.84
2023-02-28T05:26:46.540Z,1028.87
2023-02-28T05:27:46.786Z,1028.88
2023-02-28T05:28:46.576Z,1028.94
2023-02-28T05:29:54.592Z,1028.93
2023-02-28T05:30:46.404Z,1028.93
2023-02-28T05:32:07.198Z,1028.97
2023-02-28T05:32:46.482Z,1028.97
2023-02-28T05:33:48.176Z,1028.98
2023-02-28T05:34:54.223Z,1028.94
2023-02-28T05:35:47.294Z,1028.91
2023-02-28T05:36:47.789Z,1028.94
2023-02-28T05:37:47.159Z,1028.97
2023-02-28T05:38:46.350Z,1028.90
2023-02-28T05:39:54.336Z,1028.93
2023-02-28T05:40:48.099Z,1029.01
2023-02-28T05:42:07.892Z,1028.96
2023-02-28T05:42:46.729Z,1029.00
2023-02-28T05:43:47.162Z,1028.99
2023-02-28T05:44:47.691Z,1029.00
2023-02-28T05:45:48.011Z,1028.99
2023-02-28T05:46:46.295Z,1028.98
2023-02-28T05:47:47.963Z,1029.00
2023-02-28T05:48:47.046Z,1029.01
2023-02-28T05:49:47.165Z,1029.01
2023-02-28T05:50:47.896Z,1029.01
2023-02-28T05:52:06.219Z,1029.03
2023-02-28T05:52:47.976Z,1028.93
2023-02-28T05:53:47.804Z,1028.97
2023-02-28T05:54:47.108Z,1028.97
2023-02-28T05:55:46.417Z,1028.99
2023-02-28T05:56:46.186Z,1028.97
2023-02-28T05:57:46.415Z,1028.96
2023-02-28T05:58:46.187Z,1028.97
2023-02-28T05:59:46.413Z,1029.01
2023-02-28T06:00:46.177Z,1028.97
2023-02-28T06:02:07.475Z,1028.94
2023-02-28T06:02:45.537Z,1028.98
2023-02-28T06:03:46.354Z,1028.97
2023-02-28T06:04:46.047Z,1028.98
2023-02-28T06:05:46.278Z,1029.01
2023-02-28T06:06:47.545Z,1028.98
2023-02-28T06:07:47.183Z,1028.95
2023-02-28T06:08:47.705Z,1028.99
2023-02-28T06:09:47.485Z,1028.98
2023-02-28T06:10:47.792Z,1028.99
2023-02-28T06:12:06.451Z,1028.97
2023-02-28T06:12:47.399Z,1028.99
2023-02-28T06:13:46.677Z,1029.01
2023-02-28T06:14:47.532Z,1029.00
2023-02-28T06:15:47.831Z,1029.00
2023-02-28T06:16:47.648Z,1029.04
2023-02-28T06:17:46.176Z,1029.03
2023-02-28T06:18:47.783Z,1029.06
2023-02-28T06:19:46.702Z,1029.06
2023-02-28T06:20:47.407Z,1029.03
2023-02-28T06:22:07.750Z,1029.03
2023-02-28T06:22:46.068Z,1029.03
2023-02-28T06:23:46.291Z,1029.07
2023-02-28T06:24:46.060Z,1029.05
2023-02-28T06:25:46.314Z,1029.11
2023-02-28T06:26:46.056Z,1029.13
2023-02-28T06:27:45.813Z,1029.11
2023-02-28T06:28:46.082Z,1029.10
2023-02-28T06:29:45.821Z,1029.10
2023-02-28T06:30:46.597Z,1029.13
2023-02-28T06:32:07.398Z,1029.11
2023-02-28T06:32:46.124Z,1029.09
2023-02-28T06:33:46.095Z,1029.10
2023-02-28T06:34:46.225Z,1029.10
2023-02-28T06:35:45.977Z,1029.13
2023-02-28T06:36:46.199Z,1029.14
2023-02-28T06:37:45.940Z,1029.14
2023-02-28T06:38:45.703Z,1029.15
2023-02-28T06:39:45.934Z,1029.16
2023-02-28T06:40:45.682Z,1029.15
2023-02-28T06:42:06.911Z,1029.20
2023-02-28T06:42:45.685Z,1029.12
2023-02-28T06:43:45.944Z,1029.17
2023-02-28T06:44:45.695Z,1029.11
2023-02-28T06:45:45.951Z,1029.13
2023-02-28T06:46:45.709Z,1029.19
2023-02-28T06:47:46.003Z,1029.15
2023-02-28T06:48:45.733Z,1029.20
2023-02-28T06:49:45.948Z,1029.17
2023-02-28T06:50:45.716Z,1029.15
2023-02-28T06:52:05.998Z,1029.20
2023-02-28T06:52:45.721Z,1029.23
2023-02-28T06:53:45.970Z,1029.22
2023-02-28T06:54:45.726Z,1029.24
2023-02-28T06:55:45.980Z,1029.29
2023-02-28T06:56:45.726Z,1029.30
2023-02-28T06:57:45.979Z,1029.37
2023-02-28T06:58:45.742Z,1029.31
2023-02-28T06:59:45.973Z,1029.31
2023-02-28T07:00:45.720Z,1029.32
2023-02-28T07:02:06.945Z,1029.30
2023-02-28T07:02:45.721Z,1029.33
2023-02-28T07:03:45.481Z,1029.34
2023-02-28T07:04:51.136Z,1029.35
2023-02-28T07:05:45.873Z,1029.33
2023-02-28T07:06:47.083Z,1029.38
2023-02-28T07:07:46.684Z,1029.32
2023-02-28T07:08:47.165Z,1029.34
2023-02-28T07:09:45.677Z,1029.37
2023-02-28T07:10:46.205Z,1029.41
2023-02-28T07:12:06.574Z,1029.40
2023-02-28T07:12:46.879Z,1029.38
2023-02-28T07:13:47.179Z,1029.42
2023-02-28T07:14:45.534Z,1029.43
2023-02-28T07:15:47.277Z,1029.41
2023-02-28T07:16:46.192Z,1029.47
2023-02-28T07:17:46.833Z,1029.52
2023-02-28T07:18:47.130Z,1029.43
2023-02-28T07:19:45.552Z,1029.51
2023-02-28T07:20:46.777Z,1029.54
2023-02-28T07:22:05.577Z,1029.54
2023-02-28T07:22:46.788Z,1029.55
2023-02-28T07:23:47.046Z,1029.57
2023-02-28T07:24:45.509Z,1029.54
2023-02-28T07:25:47.152Z,1029.54
2023-02-28T07:26:46.968Z,1029.47
2023-02-28T07:27:46.203Z,1029.43
2023-02-28T07:28:47.122Z,1029.46
2023-02-28T07:29:45.549Z,1029.53
2023-02-28T07:30:46.747Z,1029.42
2023-02-28T07:32:05.595Z,1029.40
2023-02-28T07:32:46.762Z,1029.45
2023-02-28T07:33:46.200Z,1029.49
2023-02-28T07:34:45.459Z,1029.40
2023-02-28T07:35:46.697Z,1029.45
2023-02-28T07:36:46.934Z,1029.42
2023-02-28T07:37:46.718Z,1029.42
2023-02-28T07:38:48.400Z,1029.43
2023-02-28T07:39:45.606Z,1029.39
2023-02-28T07:40:46.570Z,1029.36
2023-02-28T07:42:06.336Z,1029.32
2023-02-28T07:42:46.616Z,1029.32
2023-02-28T07:43:46.957Z,1029.36
2023-02-28T07:44:45.652Z,1029.33
2023-02-28T07:45:46.141Z,1029.38
2023-02-28T07:46:47.016Z,1029.39
2023-02-28T07:47:46.850Z,1029.38
2023-02-28T07:48:45.853Z,1029.36
2023-02-28T07:49:45.669Z,1029.36
2023-02-28T07:50:45.436Z,1029.39
2023-02-28T07:52:06.152Z,1029.36
2023-02-28T07:52:46.918Z,1029.38
2023-02-28T07:53:46.720Z,1029.41
2023-02-28T07:54:45.448Z,1029.36
2023-02-28T07:55:45.728Z,1029.42
2023-02-28T07:56:46.765Z,1029.48
2023-02-28T07:57:46.536Z,1029.47
2023-02-28T07:58:46.850Z,1029.53
2023-02-28T07:59:46.223Z,1029.49
2023-02-28T08:00:46.447Z,1029.47
2023-02-28T08:02:06.238Z,1029.47
2023-02-28T08:02:46.481Z,1029.47
2023-02-28T08:03:46.756Z,1029.51
2023-02-28T08:04:45.555Z,1029.50
2023-02-28T08:05:45.292Z,1029.43
2023-02-28T08:06:45.910Z,1029.47
2023-02-28T08:07:46.334Z,1029.45
2023-02-28T08:08:46.731Z,1029.46
2023-02-28T08:09:45.552Z,1029.50
2023-02-28T08:10:45.800Z,1029.44
2023-02-28T08:12:05.124Z,1029.41
2023-02-28T08:12:45.740Z,1029.36
2023-02-28T08:13:46.649Z,1029.49
2023-02-28T08:14:45.580Z,1029.44
2023-02-28T08:15:46.218Z,1029.49
2023-02-28T08:16:46.529Z,1029.50
2023-02-28T08:17:46.280Z,1029.47
2023-02-28T08:18:45.745Z,1029.47
2023-02-28T08:19:45.611Z,1029.45
2023-02-28T08:20:45.867Z,1029.40
2023-02-28T08:22:04.938Z,1029.42
2023-02-28T08:22:46.176Z,1029.41
2023-02-28T08:23:45.740Z,1029.40
2023-02-28T08:24:45.638Z,1029.37
2023-02-28T08:25:46.527Z,1029.35
2023-02-28T08:26:46.332Z,1029.39
2023-02-28T08:27:46.153Z,1029.37
2023-02-28T08:28:46.409Z,1029.36
2023-02-28T08:29:44.781Z,1029.35
2023-02-28T08:30:46.514Z,1029.35
2023-02-28T08:32:05.883Z,1029.30
2023-02-28T08:32:46.713Z,1029.35
2023-02-28T08:33:46.370Z,1029.36
2023-02-28T08:34:46.906Z,1029.34
2023-02-28T08:35:45.700Z,1029.32
2023-02-28T08:36:46.220Z,1029.36
2023-02-28T08:37:45.030Z,1029.31
2023-02-28T08:38:46.369Z,1029.30
2023-02-28T08:39:45.486Z,1029.37
2023-02-28T08:40:45.253Z,1029.32
2023-02-28T08:42:08.281Z,1029.29
2023-02-28T08:42:46.463Z,1029.28
2023-02-28T08:43:46.213Z,1029.24
2023-02-28T08:44:44.589Z,1029.28
2023-02-28T08:45:46.333Z,1029.29
2023-02-28T08:46:46.087Z,1029.37
2023-02-28T08:47:45.247Z,1029.32
2023-02-28T08:48:46.201Z,1029.26
2023-02-28T08:49:45.474Z,1029.26
2023-02-28T08:50:50.449Z,1029.29
2023-02-28T08:52:07.539Z,1029.25
2023-02-28T08:52:46.317Z,1029.24
2023-02-28T08:53:48.109Z,1029.24
2023-02-28T08:54:44.357Z,1029.22
2023-02-28T08:55:44.604Z,1029.25
2023-02-28T08:56:44.372Z,1029.18
2023-02-28T08:58:12.613Z,1029.24
2023-02-28T08:58:44.354Z,1029.20
2023-02-28T08:59:45.102Z,1029.16
2023-02-28T09:00:44.387Z,1029.18
2023-02-28T09:02:39.658Z,1029.21
2023-02-28T09:02:44.450Z,1029.23
2023-02-28T09:03:45.222Z,1029.17
2023-02-28T09:04:44.957Z,1029.23
2023-02-28T09:05:45.207Z,1029.15
2023-02-28T09:06:44.952Z,1029.14
2023-02-28T09:10:24.707Z,1029.14
2023-02-28T09:10:29.528Z,1029.10
2023-02-28T09:17:10.804Z,1029.11
2023-02-28T09:17:21.900Z,1029.10
2023-02-28T12:23:32.780Z,1029.12
2023-02-28T12:23:48.393Z,1027.80
2023-02-28T12:24:39.175Z,1027.68
2023-02-28T12:25:39.943Z,1027.65
2023-02-28T12:26:37.631Z,1027.67
2023-02-28T12:27:39.826Z,1027.64
2023-02-28T12:28:37.630Z,1027.64
2023-02-28T12:29:37.537Z,1027.71
2023-02-28T12:30:58.801Z,1027.65
2023-02-28T12:32:09.599Z,1027.69
2023-02-28T12:32:58.310Z,1027.72
2023-02-28T12:33:39.509Z,1027.69
2023-02-28T12:34:38.843Z,1027.62
2023-02-28T12:35:38.138Z,1027.62
2023-02-28T12:36:39.813Z,1027.64
2023-02-28T12:37:37.467Z,1027.65
2023-02-28T12:38:39.661Z,1027.65
2023-02-28T12:39:49.816Z,1027.56
2023-02-28T12:40:39.857Z,1027.52
2023-02-28T12:41:39.514Z,1027.57
2023-02-28T12:42:58.374Z,1027.57
2023-02-28T12:43:38.191Z,1027.51
2023-02-28T12:44:38.377Z,1027.47
2023-02-28T12:45:39.705Z,1027.49
2023-02-28T12:46:38.986Z,1027.51
2023-02-28T12:47:38.230Z,1027.45
2023-02-28T12:48:38.011Z,1027.46
2023-02-28T12:49:39.146Z,1027.40
2023-02-28T12:50:37.998Z,1027.42
2023-02-28T12:51:38.888Z,1027.41
2023-02-28T12:52:58.990Z,1027.51
2023-02-28T12:53:39.738Z,1027.39
2023-02-28T12:54:38.086Z,1027.40
2023-02-28T12:55:37.847Z,1027.43
2023-02-28T12:56:39.537Z,1027.48
2023-02-28T12:57:37.904Z,1027.44
2023-02-28T12:58:38.876Z,1027.49
2023-02-28T12:59:37.922Z,1027.42
2023-02-28T13:00:39.612Z,1027.42
2023-02-28T13:01:37.996Z,1027.40
2023-02-28T13:02:59.976Z,1027.39
2023-02-28T13:03:37.962Z,1027.45
2023-02-28T13:04:38.877Z,1027.44
2023-02-28T13:05:39.418Z,1027.48
2023-02-28T13:06:37.759Z,1027.38
2023-02-28T13:07:39.483Z,1027.38
2023-02-28T13:08:40.104Z,1027.39
2023-02-28T13:09:39.010Z,1027.38
2023-02-28T13:10:37.872Z,1027.41
2023-02-28T13:11:38.568Z,1027.41
2023-02-28T13:12:58.636Z,1027.38
2023-02-28T13:13:37.584Z,1027.33
2023-02-28T13:14:38.876Z,1027.32
2023-02-28T13:15:39.179Z,1027.34
2023-02-28T13:16:38.447Z,1027.35
2023-02-28T13:17:38.510Z,1027.42
2023-02-28T13:18:39.079Z,1027.25
2023-02-28T13:19:38.007Z,1027.35
2023-02-28T13:20:39.266Z,1027.32
2023-02-28T13:21:39.074Z,1027.37
2023-02-28T13:22:57.917Z,1027.29
2023-02-28T13:23:39.178Z,1027.34
2023-02-28T13:24:38.517Z,1027.30
2023-02-28T13:25:39.290Z,1027.32
2023-02-28T13:26:39.086Z,1027.30
2023-02-28T13:27:39.458Z,1027.37
2023-02-28T13:28:38.365Z,1027.34
2023-02-28T13:29:38.595Z,1027.33
2023-02-28T13:30:38.894Z,1027.30
2023-02-28T13:31:38.392Z,1027.32
2023-02-28T13:32:57.503Z,1027.26
2023-02-28T13:33:39.200Z,1027.27
2023-02-28T13:34:37.751Z,1027.27
2023-02-28T13:35:38.944Z,1027.24
2023-02-28T13:36:39.199Z,1027.30
2023-02-28T13:37:38.983Z,1027.21
2023-02-28T13:38:39.326Z,1027.32
2023-02-28T13:39:38.638Z,1027.24
2023-02-28T13:40:38.442Z,1027.23
2023-02-28T13:41:39.220Z,1027.17
2023-02-28T13:42:57.585Z,1027.12
2023-02-28T13:43:38.776Z,1027.14
2023-02-28T13:44:38.575Z,1027.23
2023-02-28T13:45:38.878Z,1027.19
2023-02-28T13:46:38.519Z,1027.24
2023-02-28T13:47:38.936Z,1027.32
2023-02-28T13:48:38.776Z,1027.22
2023-02-28T13:49:38.528Z,1027.26
2023-02-28T13:50:37.472Z,1027.26
2023-02-28T13:51:39.189Z,1027.18
2023-02-28T13:52:57.507Z,1027.19
2023-02-28T13:53:38.749Z,1027.16
2023-02-28T13:54:38.534Z,1027.13
2023-02-28T13:55:38.867Z,1027.15
2023-02-28T13:56:37.902Z,1027.17
2023-02-28T13:57:38.940Z,1027.10
2023-02-28T13:58:37.919Z,1027.16
2023-02-28T13:59:38.559Z,1027.23
2023-02-28T14:00:38.185Z,1027.14
2023-02-28T14:01:39.027Z,1027.17
2023-02-28T14:02:57.305Z,1027.16
2023-02-28T14:03:39.001Z,1027.24
2023-02-28T14:04:37.359Z,1027.14
2023-02-28T14:05:37.087Z,1027.35
2023-02-28T14:06:37.313Z,1027.19
2023-02-28T14:07:37.058Z,1027.24
2023-02-28T14:08:37.330Z,1027.26
2023-02-28T14:09:37.090Z,1027.24
2023-02-28T14:10:37.345Z,1027.19
2023-02-28T14:11:37.114Z,1027.27
2023-02-28T14:12:59.032Z,1027.32
2023-02-28T14:13:37.149Z,1027.35
2023-02-28T14:14:37.423Z,1027.31
2023-02-28T14:15:37.185Z,1027.29
2023-02-28T14:16:37.438Z,1027.22
2023-02-28T14:17:37.182Z,1027.21
2023-02-28T14:18:36.987Z,1027.19
2023-02-28T14:19:37.225Z,1027.19
2023-02-28T14:20:36.975Z,1027.15
2023-02-28T14:21:37.215Z,1027.19
2023-02-28T14:22:58.426Z,1027.24
2023-02-28T14:23:37.260Z,1027.15
2023-02-28T14:24:37.034Z,1027.14
2023-02-28T14:25:37.300Z,1027.13
2023-02-28T14:26:37.051Z,1027.19
2023-02-28T14:27:37.292Z,1027.15
2023-02-28T14:28:37.084Z,1027.18
2023-02-28T14:29:37.305Z,1027.11
2023-02-28T14:30:37.058Z,1027.12
2023-02-28T14:31:36.936Z,1027.21
2023-02-28T14:32:58.565Z,1027.16
2023-02-28T14:33:36.845Z,1027.20
2023-02-28T14:34:37.095Z,1027.14
2023-02-28T14:35:36.852Z,1027.15
2023-02-28T14:36:37.095Z,1027.20
2023-02-28T14:37:36.818Z,1027.14
2023-02-28T14:38:37.099Z,1027.13
2023-02-28T14:39:36.917Z,1027.15
2023-02-28T14:40:37.171Z,1027.11
2023-02-28T14:41:36.907Z,1027.21
2023-02-28T14:42:58.636Z,1027.19
2023-02-28T14:43:36.909Z,1027.20
2023-02-28T14:44:36.664Z,1027.18
2023-02-28T14:45:36.950Z,1027.21
2023-02-28T14:46:36.769Z,1027.18
2023-02-28T14:47:36.971Z,1027.13
2023-02-28T14:48:36.709Z,1027.12
2023-02-28T14:49:36.949Z,1027.11
2023-02-28T14:50:36.811Z,1027.06
2023-02-28T14:51:36.951Z,1027.07
2023-02-28T14:52:56.914Z,1027.08
2023-02-28T14:53:37.011Z,1027.08
2023-02-28T14:54:36.763Z,1027.07
2023-02-28T14:55:37.007Z,1027.08
2023-02-28T14:56:36.775Z,1027.12
2023-02-28T14:57:37.018Z,1027.07
2023-02-28T14:58:36.793Z,1027.15
2023-02-28T14:59:36.517Z,1027.08
2023-02-28T15:00:36.737Z,1027.04
2023-02-28T15:01:36.610Z,1027.06
2023-02-28T15:02:58.280Z,1027.08
2023-02-28T15:03:36.578Z,1027.08
2023-02-28T15:04:36.838Z,1027.06
2023-02-28T15:05:36.601Z,1027.09
2023-02-28T15:06:36.826Z,1027.10
2023-02-28T15:07:36.618Z,1027.09
2023-02-28T15:08:37.280Z,1027.09
2023-02-28T15:09:36.567Z,1026.99
2023-02-28T15:10:36.813Z,1026.98
2023-02-28T15:11:35.876Z,1027.04
2023-02-28T15:12:57.488Z,1027.03
2023-02-28T15:13:36.684Z,1027.00
2023-02-28T15:14:36.452Z,1027.02
2023-02-28T15:15:40.579Z,1027.05
2023-02-28T15:16:37.510Z,1027.06